sensor_id;sensor_type;location;lat;lon;timestamp;P1;durP1;ratioP1;P2;durP2;ratioP2
25531;SDS011;13429;48.816;9.118;2023-02-28T00:01:19;7.10;;;3.00;;
25531;SDS011;13429;48.816;9.118;2023-02-28T00:03:45;4.32;;;2.88;;
25531;SDS011;13429;48.816;9.118;2023-02-28T00:06:11;4.53;;;2.92;;
25531;SDS011;13429;48.816;9.118;2023-02-28T00:08:37;3.85;;;2.25;;
25531;SDS011;13429;48.816;9.118;2023-02-28T00:11:04;5.97;;;3.10;;
25531;SDS011;13429;48.816;9.118;2023-02-28T00:13:31;6.30;;;2.92;;
25531;SDS011;13429;48.816;9.118;2023-02-28T00:16:04;6.20;;;3.20;;
25531;SDS011;13429;48.816;9.118;2023-02-28T00:18:30;4.90;;;2.85;;
25531;SDS011;13429;48.816;9.118;2023-02-28T00:20:57;6.15;;;2.65;;
25531;SDS011;13429;48.816;9.118;2023-02-28T00:23:23;5.88;;;3.08;;
25531;SDS011;13429;48.816;9.118;2023-02-28T00:25:49;4.88;;;2.67;;
25531;SDS011;13429;48.816;9.118;2023-02-28T00:28:16;5.65;;;2.95;;
25531;SDS011;13429;48.816;9.118;2023-02-28T00:30:42;3.85;;;2.70;;
25531;SDS011;13429;48.816;9.118;2023-02-28T00:33:08;5.63;;;2.80;;
25531;SDS011;13429;48.816;9.118;2023-02-28T00:35:34;4.10;;;2.53;;
25531;SDS011;13429;48.816;9.118;2023-02-28T00:38:00;5.68;;;3.05;;
25531;SDS011;13429;48.816;9.118;2023-02-28T00:40:26;5.13;;;3.03;;
25531;SDS011;13429;48.816;9.118;2023-02-28T00:42:52;3.97;;;2.88;;
25531;SDS011;13429;48.816;9.118;2023-02-28T00:45:18;7.07;;;2.75;;
25531;SDS011;13429;48.816;9.118;2023-02-28T00:47:44;5.15;;;3.30;;
25531;SDS011;13429;48.816;9.118;2023-02-28T00:50:11;5.55;;;3.03;;
25531;SDS011;13429;48.816;9.118;2023-02-28T00:52:37;5.68;;;3.33;;
25531;SDS011;13429;48.816;9.118;2023-02-28T00:55:04;3.80;;;3.17;;
25531;SDS011;13429;48.816;9.118;2023-02-28T00:57:30;6.03;;;3.00;;
25531;SDS011;13429;48.816;9.118;2023-02-28T00:59:56;5.13;;;3.40;;
25531;SDS011;13429;48.816;9.118;2023-02-28T01:02:22;8.93;;;3.38;;
25531;SDS011;13429;48.816;9.118;2023-02-28T01:04:48;4.75;;;3.63;;
25531;SDS011;13429;48.816;9.118;2023-02-28T01:07:14;5.63;;;3.65;;
25531;SDS011;13429;48.816;9.118;2023-02-28T01:09:41;8.65;;;3.78;;
25531;SDS011;13429;48.816;9.118;2023-02-28T01:12:07;7.80;;;3.30;;
25531;SDS011;13429;48.816;9.118;2023-02-28T01:14:33;6.70;;;3.45;;
25531;SDS011;13429;48.816;9.118;2023-02-28T01:17:00;10.88;;;3.95;;
25531;SDS011;13429;48.816;9.118;2023-02-28T01:19:26;7.93;;;4.18;;
25531;SDS011;13429;48.816;9.118;2023-02-28T01:21:52;7.20;;;4.18;;
25531;SDS011;13429;48.816;9.118;2023-02-28T01:24:18;5.50;;;3.40;;
25531;SDS011;13429;48.816;9.118;2023-02-28T01:26:44;8.90;;;4.15;;
25531;SDS011;13429;48.816;9.118;2023-02-28T01:29:10;8.63;;;4.25;;
25531;SDS011;13429;48.816;9.118;2023-02-28T01:31:36;7.30;;;4.07;;
25531;SDS011;13429;48.816;9.118;2023-02-28T01:34:03;6.97;;;3.80;;
25531;SDS011;13429;48.816;9.118;2023-02-28T01:36:29;8.73;;;4.63;;
25531;SDS011;13429;48.816;9.118;2023-02-28T01:38:55;7.88;;;4.70;;
25531;SDS011;13429;48.816;9.118;2023-02-28T01:41:28;6.93;;;4.53;;
25531;SDS011;13429;48.816;9.118;2023-02-28T01:43:59;6.85;;;4.50;;
25531;SDS011;13429;48.816;9.118;2023-02-28T01:46:28;12.57;;;4.18;;
25531;SDS011;13429;48.816;9.118;2023-02-28T01:49:27;7.15;;;4.15;;
25531;SDS011;13429;48.816;9.118;2023-02-28T01:51:48;7.70;;;4.43;;
25531;SDS011;13429;48.816;9.118;2023-02-28T01:54:21;7.05;;;4.43;;
25531;SDS011;13429;48.816;9.118;2023-02-28T01:56:52;7.25;;;4.43;;
25531;SDS011;13429;48.816;9.118;2023-02-28T01:59:42;8.02;;;3.92;;
25531;SDS011;13429;48.816;9.118;2023-02-28T02:02:10;11.80;;;4.22;;
25531;SDS011;13429;48.816;9.118;2023-02-28T02:04:40;5.65;;;4.13;;
25531;SDS011;13429;48.816;9.118;2023-02-28T02:07:07;7.80;;;4.05;;
25531;SDS011;13429;48.816;9.118;2023-02-28T02:09:34;7.40;;;4.20;;
25531;SDS011;13429;48.816;9.118;2023-02-28T02:12:01;7.03;;;4.20;;
25531;SDS011;13429;48.816;9.118;2023-02-28T02:14:35;7.88;;;4.93;;
25531;SDS011;13429;48.816;9.118;2023-02-28T02:30:00;7.40;;;4.72;;
25531;SDS011;13429;48.816;9.118;2023-02-28T02:35:14;8.25;;;4.60;;
25531;SDS011;13429;48.816;9.118;2023-02-28T02:40:13;10.10;;;5.18;;
25531;SDS011;13429;48.816;9.118;2023-02-28T02:45:15;9.77;;;5.72;;
25531;SDS011;13429;48.816;9.118;2023-02-28T02:47:43;8.15;;;4.80;;
25531;SDS011;13429;48.816;9.118;2023-02-28T02:50:11;10.43;;;5.35;;
25531;SDS011;13429;48.816;9.118;2023-02-28T02:52:40;10.77;;;5.30;;
25531;SDS011;13429;48.816;9.118;2023-02-28T02:55:08;7.65;;;4.95;;
25531;SDS011;13429;48.816;9.118;2023-02-28T02:57:43;8.75;;;5.03;;
25531;SDS011;13429;48.816;9.118;2023-02-28T03:00:11;6.70;;;4.60;;
25531;SDS011;13429;48.816;9.118;2023-02-28T03:02:37;7.68;;;4.82;;
25531;SDS011;13429;48.816;9.118;2023-02-28T03:05:06;7.30;;;5.03;;
25531;SDS011;13429;48.816;9.118;2023-02-28T03:07:34;7.88;;;4.90;;
25531;SDS011;13429;48.816;9.118;2023-02-28T03:10:00;8.52;;;5.28;;
25531;SDS011;13429;48.816;9.118;2023-02-28T03:12:30;9.88;;;5.80;;
25531;SDS011;13429;48.816;9.118;2023-02-28T03:22:50;9.77;;;5.20;;
25531;SDS011;13429;48.816;9.118;2023-02-28T03:30:22;10.38;;;6.93;;
25531;SDS011;13429;48.816;9.118;2023-02-28T03:32:55;10.95;;;5.68;;
25531;SDS011;13429;48.816;9.118;2023-02-28T03:35:28;6.78;;;5.38;;
25531;SDS011;13429;48.816;9.118;2023-02-28T03:38:17;8.60;;;5.50;;
25531;SDS011;13429;48.816;9.118;2023-02-28T03:40:47;9.40;;;5.70;;
25531;SDS011;13429;48.816;9.118;2023-02-28T03:43:15;9.15;;;5.63;;
25531;SDS011;13429;48.816;9.118;2023-02-28T03:45:43;8.00;;;5.30;;
25531;SDS011;13429;48.816;9.118;2023-02-28T03:50:37;10.85;;;6.15;;
25531;SDS011;13429;48.816;9.118;2023-02-28T03:53:05;8.85;;;5.80;;
25531;SDS011;13429;48.816;9.118;2023-02-28T03:55:33;8.93;;;6.07;;
25531;SDS011;13429;48.816;9.118;2023-02-28T04:02:53;9.52;;;5.85;;
25531;SDS011;13429;48.816;9.118;2023-02-28T04:05:19;10.95;;;5.65;;
25531;SDS011;13429;48.816;9.118;2023-02-28T04:07:46;9.35;;;5.35;;
25531;SDS011;13429;48.816;9.118;2023-02-28T04:10:13;9.65;;;6.03;;
25531;SDS011;13429;48.816;9.118;2023-02-28T04:12:39;10.18;;;6.25;;
25531;SDS011;13429;48.816;9.118;2023-02-28T04:15:05;9.05;;;5.97;;
25531;SDS011;13429;48.816;9.118;2023-02-28T04:17:32;10.20;;;5.97;;
25531;SDS011;13429;48.816;9.118;2023-02-28T04:19:58;8.18;;;4.90;;
25531;SDS011;13429;48.816;9.118;2023-02-28T04:22:24;10.13;;;6.28;;
25531;SDS011;13429;48.816;9.118;2023-02-28T04:24:53;11.07;;;5.75;;
25531;SDS011;13429;48.816;9.118;2023-02-28T04:27:19;9.18;;;5.80;;
25531;SDS011;13429;48.816;9.118;2023-02-28T04:29:46;8.93;;;5.60;;
25531;SDS011;13429;48.816;9.118;2023-02-28T04:32:12;11.45;;;6.43;;
25531;SDS011;13429;48.816;9.118;2023-02-28T04:34:38;10.05;;;5.80;;
25531;SDS011;13429;48.816;9.118;2023-02-28T04:37:04;9.98;;;5.55;;
25531;SDS011;13429;48.816;9.118;2023-02-28T04:39:34;9.85;;;5.82;;
25531;SDS011;13429;48.816;9.118;2023-02-28T04:42:00;10.40;;;6.00;;
25531;SDS011;13429;48.816;9.118;2023-02-28T04:44:26;8.90;;;5.75;;
25531;SDS011;13429;48.816;9.118;2023-02-28T04:46:52;9.50;;;5.85;;
25531;SDS011;13429;48.816;9.118;2023-02-28T04:49:18;12.98;;;6.43;;
25531;SDS011;13429;48.816;9.118;2023-02-28T04:51:44;9.57;;;5.53;;
25531;SDS011;13429;48.816;9.118;2023-02-28T04:54:10;9.38;;;6.13;;
25531;SDS011;13429;48.816;9.118;2023-02-28T04:56:36;10.50;;;6.38;;
25531;SDS011;13429;48.816;9.118;2023-02-28T04:59:02;9.15;;;6.13;;
25531;SDS011;13429;48.816;9.118;2023-02-28T05:01:30;12.63;;;7.20;;
25531;SDS011;13429;48.816;9.118;2023-02-28T05:03:58;12.15;;;6.63;;
25531;SDS011;13429;48.816;9.118;2023-02-28T05:06:25;15.25;;;6.75;;
25531;SDS011;13429;48.816;9.118;2023-02-28T05:08:51;9.60;;;6.38;;
25531;SDS011;13429;48.816;9.118;2023-02-28T05:11:22;12.35;;;6.72;;
25531;SDS011;13429;48.816;9.118;2023-02-28T05:16:15;12.75;;;7.35;;
25531;SDS011;13429;48.816;9.118;2023-02-28T05:18:41;11.77;;;6.70;;
25531;SDS011;13429;48.816;9.118;2023-02-28T05:21:17;10.90;;;6.45;;
25531;SDS011;13429;48.816;9.118;2023-02-28T05:23:48;10.85;;;6.55;;
25531;SDS011;13429;48.816;9.118;2023-02-28T05:26:14;10.02;;;6.72;;
25531;SDS011;13429;48.816;9.118;2023-02-28T05:28:40;10.80;;;7.13;;
25531;SDS011;13429;48.816;9.118;2023-02-28T05:31:07;11.98;;;7.22;;
25531;SDS011;13429;48.816;9.118;2023-02-28T05:33:33;12.52;;;6.78;;
25531;SDS011;13429;48.816;9.118;2023-02-28T05:35:59;10.38;;;6.68;;
25531;SDS011;13429;48.816;9.118;2023-02-28T05:38:25;10.35;;;6.28;;
25531;SDS011;13429;48.816;9.118;2023-02-28T05:40:51;10.40;;;6.90;;
25531;SDS011;13429;48.816;9.118;2023-02-28T05:43:18;10.13;;;6.28;;
25531;SDS011;13429;48.816;9.118;2023-02-28T05:45:44;15.93;;;7.85;;
25531;SDS011;13429;48.816;9.118;2023-02-28T05:48:10;12.20;;;6.65;;
25531;SDS011;13429;48.816;9.118;2023-02-28T05:50:36;13.10;;;7.20;;
25531;SDS011;13429;48.816;9.118;2023-02-28T05:53:03;16.40;;;7.70;;
25531;SDS011;13429;48.816;9.118;2023-02-28T05:55:29;15.43;;;7.18;;
25531;SDS011;13429;48.816;9.118;2023-02-28T05:57:55;14.55;;;7.57;;
25531;SDS011;13429;48.816;9.118;2023-02-28T06:00:21;10.52;;;6.68;;
25531;SDS011;13429;48.816;9.118;2023-02-28T06:02:47;11.55;;;6.82;;
25531;SDS011;13429;48.816;9.118;2023-02-28T06:05:15;16.35;;;7.28;;
25531;SDS011;13429;48.816;9.118;2023-02-28T06:07:41;11.60;;;7.15;;
25531;SDS011;13429;48.816;9.118;2023-02-28T06:10:08;11.32;;;7.40;;
25531;SDS011;13429;48.816;9.118;2023-02-28T06:12:34;13.85;;;7.05;;
25531;SDS011;13429;48.816;9.118;2023-02-28T06:15:00;15.35;;;7.68;;
25531;SDS011;13429;48.816;9.118;2023-02-28T06:17:26;12.95;;;7.32;;
25531;SDS011;13429;48.816;9.118;2023-02-28T06:19:52;14.23;;;7.28;;
25531;SDS011;13429;48.816;9.118;2023-02-28T06:22:18;13.05;;;7.65;;
25531;SDS011;13429;48.816;9.118;2023-02-28T06:24:44;12.80;;;8.07;;
25531;SDS011;13429;48.816;9.118;2023-02-28T06:27:10;12.40;;;7.30;;
25531;SDS011;13429;48.816;9.118;2023-02-28T06:29:36;12.20;;;7.18;;
25531;SDS011;13429;48.816;9.118;2023-02-28T06:32:04;13.77;;;8.00;;
25531;SDS011;13429;48.816;9.118;2023-02-28T06:34:31;13.10;;;7.70;;
25531;SDS011;13429;48.816;9.118;2023-02-28T06:36:58;13.40;;;7.43;;
25531;SDS011;13429;48.816;9.118;2023-02-28T06:39:27;12.38;;;7.20;;
25531;SDS011;13429;48.816;9.118;2023-02-28T06:41:53;12.00;;;7.13;;
25531;SDS011;13429;48.816;9.118;2023-02-28T06:44:20;12.93;;;7.68;;
25531;SDS011;13429;48.816;9.118;2023-02-28T06:46:46;14.25;;;7.72;;
25531;SDS011;13429;48.816;9.118;2023-02-28T06:49:12;14.95;;;8.30;;
25531;SDS011;13429;48.816;9.118;2023-02-28T06:51:41;12.82;;;7.43;;
25531;SDS011;13429;48.816;9.118;2023-02-28T06:54:09;13.77;;;7.50;;
25531;SDS011;13429;48.816;9.118;2023-02-28T06:56:36;15.23;;;7.75;;
25531;SDS011;13429;48.816;9.118;2023-02-28T06:59:02;13.13;;;7.38;;
25531;SDS011;13429;48.816;9.118;2023-02-28T07:01:28;11.95;;;7.50;;
25531;SDS011;13429;48.816;9.118;2023-02-28T07:03:57;14.23;;;7.40;;
25531;SDS011;13429;48.816;9.118;2023-02-28T07:06:23;12.32;;;7.88;;
25531;SDS011;13429;48.816;9.118;2023-02-28T07:08:50;14.65;;;7.57;;
25531;SDS011;13429;48.816;9.118;2023-02-28T07:11:17;14.05;;;7.70;;
25531;SDS011;13429;48.816;9.118;2023-02-28T07:13:44;17.77;;;7.80;;
25531;SDS011;13429;48.816;9.118;2023-02-28T07:16:11;19.10;;;7.72;;
25531;SDS011;13429;48.816;9.118;2023-02-28T07:18:37;13.75;;;7.57;;
25531;SDS011;13429;48.816;9.118;2023-02-28T07:21:04;13.05;;;8.88;;
25531;SDS011;13429;48.816;9.118;2023-02-28T07:23:31;15.80;;;8.70;;
25531;SDS011;13429;48.816;9.118;2023-02-28T07:25:57;17.25;;;8.48;;
25531;SDS011;13429;48.816;9.118;2023-02-28T07:28:23;11.15;;;7.25;;
25531;SDS011;13429;48.816;9.118;2023-02-28T07:30:49;19.23;;;8.63;;
25531;SDS011;13429;48.816;9.118;2023-02-28T07:33:15;15.10;;;7.78;;
25531;SDS011;13429;48.816;9.118;2023-02-28T07:35:41;14.15;;;7.97;;
25531;SDS011;13429;48.816;9.118;2023-02-28T07:38:07;13.05;;;7.90;;
25531;SDS011;13429;48.816;9.118;2023-02-28T07:40:34;13.30;;;8.20;;
25531;SDS011;13429;48.816;9.118;2023-02-28T07:43:00;17.08;;;9.10;;
25531;SDS011;13429;48.816;9.118;2023-02-28T07:45:27;15.20;;;9.50;;
25531;SDS011;13429;48.816;9.118;2023-02-28T07:47:59;13.88;;;7.57;;
25531;SDS011;13429;48.816;9.118;2023-02-28T07:50:25;17.88;;;8.27;;
25531;SDS011;13429;48.816;9.118;2023-02-28T07:52:54;13.07;;;6.85;;
25531;SDS011;13429;48.816;9.118;2023-02-28T07:55:20;14.18;;;8.65;;
25531;SDS011;13429;48.816;9.118;2023-02-28T07:57:46;13.13;;;8.65;;
25531;SDS011;13429;48.816;9.118;2023-02-28T08:00:12;14.50;;;8.15;;
25531;SDS011;13429;48.816;9.118;2023-02-28T08:02:38;16.75;;;7.82;;
25531;SDS011;13429;48.816;9.118;2023-02-28T08:05:05;14.48;;;8.43;;
25531;SDS011;13429;48.816;9.118;2023-02-28T08:07:31;13.43;;;8.95;;
25531;SDS011;13429;48.816;9.118;2023-02-28T08:09:58;14.68;;;8.68;;
25531;SDS011;13429;48.816;9.118;2023-02-28T08:12:24;13.93;;;8.20;;
25531;SDS011;13429;48.816;9.118;2023-02-28T08:14:50;20.13;;;10.00;;
25531;SDS011;13429;48.816;9.118;2023-02-28T08:17:16;15.15;;;8.60;;
25531;SDS011;13429;48.816;9.118;2023-02-28T08:19:44;14.00;;;8.48;;
25531;SDS011;13429;48.816;9.118;2023-02-28T08:22:11;17.38;;;9.10;;
25531;SDS011;13429;48.816;9.118;2023-02-28T08:24:37;15.20;;;8.57;;
25531;SDS011;13429;48.816;9.118;2023-02-28T08:27:03;14.75;;;8.88;;
25531;SDS011;13429;48.816;9.118;2023-02-28T08:29:29;12.38;;;8.00;;
25531;SDS011;13429;48.816;9.118;2023-02-28T08:31:55;18.55;;;8.25;;
25531;SDS011;13429;48.816;9.118;2023-02-28T08:34:22;15.77;;;8.50;;
25531;SDS011;13429;48.816;9.118;2023-02-28T08:36:48;16.15;;;9.52;;
25531;SDS011;13429;48.816;9.118;2023-02-28T08:39:14;13.57;;;8.43;;
25531;SDS011;13429;48.816;9.118;2023-02-28T08:41:41;13.77;;;8.65;;
25531;SDS011;13429;48.816;9.118;2023-02-28T08:44:07;17.58;;;9.05;;
25531;SDS011;13429;48.816;9.118;2023-02-28T08:46:33;13.75;;;8.38;;
25531;SDS011;13429;48.816;9.118;2023-02-28T08:48:59;15.52;;;9.48;;
25531;SDS011;13429;48.816;9.118;2023-02-28T08:51:27;14.05;;;8.35;;
25531;SDS011;13429;48.816;9.118;2023-02-28T08:53:53;22.20;;;10.05;;
25531;SDS011;13429;48.816;9.118;2023-02-28T08:56:20;20.15;;;9.82;;
25531;SDS011;13429;48.816;9.118;2023-02-28T08:58:46;15.98;;;9.70;;
25531;SDS011;13429;48.816;9.118;2023-02-28T09:01:17;15.77;;;9.77;;
25531;SDS011;13429;48.816;9.118;2023-02-28T09:03:44;14.07;;;9.45;;
25531;SDS011;13429;48.816;9.118;2023-02-28T09:06:11;12.82;;;8.90;;
25531;SDS011;13429;48.816;9.118;2023-02-28T09:08:37;15.50;;;9.85;;
25531;SDS011;13429;48.816;9.118;2023-02-28T09:11:03;17.65;;;9.15;;
25531;SDS011;13429;48.816;9.118;2023-02-28T09:13:30;17.50;;;8.40;;
25531;SDS011;13429;48.816;9.118;2023-02-28T09:15:57;15.30;;;9.45;;
25531;SDS011;13429;48.816;9.118;2023-02-28T09:18:24;16.67;;;9.90;;
25531;SDS011;13429;48.816;9.118;2023-02-28T09:20:51;18.45;;;9.38;;
25531;SDS011;13429;48.816;9.118;2023-02-28T09:23:17;14.15;;;8.85;;
25531;SDS011;13429;48.816;9.118;2023-02-28T09:25:47;14.93;;;9.18;;
25531;SDS011;13429;48.816;9.118;2023-02-28T09:28:13;17.25;;;10.02;;
25531;SDS011;13429;48.816;9.118;2023-02-28T09:30:46;16.52;;;9.32;;
25531;SDS011;13429;48.816;9.118;2023-02-28T09:33:13;23.23;;;9.70;;
25531;SDS011;13429;48.816;9.118;2023-02-28T09:35:39;18.30;;;9.63;;
25531;SDS011;13429;48.816;9.118;2023-02-28T09:38:05;16.05;;;9.93;;
25531;SDS011;13429;48.816;9.118;2023-02-28T09:40:34;14.35;;;9.80;;
25531;SDS011;13429;48.816;9.118;2023-02-28T09:43:01;15.20;;;8.75;;
25531;SDS011;13429;48.816;9.118;2023-02-28T09:45:48;19.27;;;11.10;;
25531;SDS011;13429;48.816;9.118;2023-02-28T09:48:22;17.25;;;10.55;;
25531;SDS011;13429;48.816;9.118;2023-02-28T09:50:51;16.25;;;10.57;;
25531;SDS011;13429;48.816;9.118;2023-02-28T09:55:55;13.60;;;8.90;;
25531;SDS011;13429;48.816;9.118;2023-02-28T10:06:20;17.15;;;10.50;;
25531;SDS011;13429;48.816;9.118;2023-02-28T10:08:59;19.52;;;10.43;;
25531;SDS011;13429;48.816;9.118;2023-02-28T10:11:26;17.58;;;10.00;;
25531;SDS011;13429;48.816;9.118;2023-02-28T10:21:41;17.67;;;10.75;;
25531;SDS011;13429;48.816;9.118;2023-02-28T10:26:45;17.77;;;10.90;;
25531;SDS011;13429;48.816;9.118;2023-02-28T10:29:13;17.10;;;10.80;;
25531;SDS011;13429;48.816;9.118;2023-02-28T10:31:39;18.80;;;10.43;;
25531;SDS011;13429;48.816;9.118;2023-02-28T10:34:05;17.75;;;10.57;;
25531;SDS011;13429;48.816;9.118;2023-02-28T10:36:31;18.27;;;10.30;;
25531;SDS011;13429;48.816;9.118;2023-02-28T10:38:58;15.80;;;10.20;;
25531;SDS011;13429;48.816;9.118;2023-02-28T10:41:31;18.40;;;11.48;;
25531;SDS011;13429;48.816;9.118;2023-02-28T10:46:40;17.15;;;10.60;;
25531;SDS011;13429;48.816;9.118;2023-02-28T10:49:11;20.08;;;10.43;;
25531;SDS011;13429;48.816;9.118;2023-02-28T10:51:38;15.82;;;10.45;;
25531;SDS011;13429;48.816;9.118;2023-02-28T10:54:05;18.38;;;10.65;;
25531;SDS011;13429;48.816;9.118;2023-02-28T10:56:31;16.77;;;10.68;;
25531;SDS011;13429;48.816;9.118;2023-02-28T10:59:40;15.52;;;9.80;;
25531;SDS011;13429;48.816;9.118;2023-02-28T11:01:47;14.05;;;9.50;;
25531;SDS011;13429;48.816;9.118;2023-02-28T11:04:19;15.52;;;10.48;;
25531;SDS011;13429;48.816;9.118;2023-02-28T11:09:16;15.57;;;10.55;;
25531;SDS011;13429;48.816;9.118;2023-02-28T11:11:44;18.42;;;11.73;;
25531;SDS011;13429;48.816;9.118;2023-02-28T11:14:25;18.35;;;10.70;;
25531;SDS011;13429;48.816;9.118;2023-02-28T11:16:51;17.48;;;10.90;;
25531;SDS011;13429;48.816;9.118;2023-02-28T11:19:28;17.75;;;10.40;;
25531;SDS011;13429;48.816;9.118;2023-02-28T11:21:58;17.30;;;10.55;;
25531;SDS011;13429;48.816;9.118;2023-02-28T11:24:29;12.60;;;9.55;;
25531;SDS011;13429;48.816;9.118;2023-02-28T11:26:56;18.23;;;11.52;;
25531;SDS011;13429;48.816;9.118;2023-02-28T11:29:32;18.60;;;11.10;;
25531;SDS011;13429;48.816;9.118;2023-02-28T11:34:33;16.77;;;10.38;;
25531;SDS011;13429;48.816;9.118;2023-02-28T11:36:59;16.08;;;11.20;;
25531;SDS011;13429;48.816;9.118;2023-02-28T11:39:29;15.20;;;10.32;;
25531;SDS011;13429;48.816;9.118;2023-02-28T11:44:35;17.10;;;10.60;;
25531;SDS011;13429;48.816;9.118;2023-02-28T11:47:17;13.65;;;10.13;;
25531;SDS011;13429;48.816;9.118;2023-02-28T11:49:50;16.92;;;11.63;;
25531;SDS011;13429;48.816;9.118;2023-02-28T12:00:25;16.85;;;10.32;;
25531;SDS011;13429;48.816;9.118;2023-02-28T12:05:37;15.43;;;10.30;;
25531;SDS011;13429;48.816;9.118;2023-02-28T12:08:22;13.93;;;9.93;;
25531;SDS011;13429;48.816;9.118;2023-02-28T12:10:58;17.55;;;9.98;;
25531;SDS011;13429;48.816;9.118;2023-02-28T12:23:33;17.45;;;10.75;;
25531;SDS011;13429;48.816;9.118;2023-02-28T12:26:02;16.08;;;10.80;;
25531;SDS011;13429;48.816;9.118;2023-02-28T12:28:32;16.75;;;9.57;;
25531;SDS011;13429;48.816;9.118;2023-02-28T12:31:01;14.75;;;10.30;;
25531;SDS011;13429;48.816;9.118;2023-02-28T12:33:31;16.52;;;11.18;;
25531;SDS011;13429;48.816;9.118;2023-02-28T12:35:59;19.80;;;10.00;;
25531;SDS011;13429;48.816;9.118;2023-02-28T12:38:28;15.00;;;9.38;;
25531;SDS011;13429;48.816;9.118;2023-02-28T12:41:05;17.92;;;9.88;;
25531;SDS011;13429;48.816;9.118;2023-02-28T12:43:36;19.58;;;9.77;;
25531;SDS011;13429;48.816;9.118;2023-02-28T12:46:11;15.45;;;10.43;;
25531;SDS011;13429;48.816;9.118;2023-02-28T12:48:45;15.32;;;8.93;;
25531;SDS011;13429;48.816;9.118;2023-02-28T12:51:12;12.98;;;8.10;;
25531;SDS011;13429;48.816;9.118;2023-02-28T12:56:19;15.80;;;10.27;;
25531;SDS011;13429;48.816;9.118;2023-02-28T12:58:51;13.63;;;9.02;;
25531;SDS011;13429;48.816;9.118;2023-02-28T13:09:09;17.50;;;10.75;;
25531;SDS011;13429;48.816;9.118;2023-02-28T13:11:47;15.27;;;8.98;;
25531;SDS011;13429;48.816;9.118;2023-02-28T13:14:22;13.02;;;8.52;;
25531;SDS011;13429;48.816;9.118;2023-02-28T13:17:02;13.88;;;9.32;;
25531;SDS011;13429;48.816;9.118;2023-02-28T13:19:30;13.33;;;9.63;;
25531;SDS011;13429;48.816;9.118;2023-02-28T13:21:57;14.63;;;9.20;;
25531;SDS011;13429;48.816;9.118;2023-02-28T13:42:51;15.27;;;8.40;;
25531;SDS011;13429;48.816;9.118;2023-02-28T13:52:57;13.88;;;9.48;;
25531;SDS011;13429;48.816;9.118;2023-02-28T14:03:36;14.65;;;9.13;;
25531;SDS011;13429;48.816;9.118;2023-02-28T14:09:06;14.38;;;8.95;;
25531;SDS011;13429;48.816;9.118;2023-02-28T14:11:41;12.73;;;9.25;;
25531;SDS011;13429;48.816;9.118;2023-02-28T14:14:08;12.93;;;8.85;;
25531;SDS011;13429;48.816;9.118;2023-02-28T14:16:44;15.32;;;10.07;;
25531;SDS011;13429;48.816;9.118;2023-02-28T14:19:15;12.63;;;9.07;;
25531;SDS011;13429;48.816;9.118;2023-02-28T14:29:42;12.95;;;8.95;;
25531;SDS011;13429;48.816;9.118;2023-02-28T14:34:55;14.32;;;8.70;;
25531;SDS011;13429;48.816;9.118;2023-02-28T14:37:26;12.32;;;8.88;;
25531;SDS011;13429;48.816;9.118;2023-02-28T14:39:53;12.55;;;8.27;;
25531;SDS011;13429;48.816;9.118;2023-02-28T14:42:39;13.15;;;8.80;;
25531;SDS011;13429;48.816;9.118;2023-02-28T14:45:19;17.55;;;9.48;;
25531;SDS011;13429;48.816;9.118;2023-02-28T14:47:46;14.82;;;8.38;;
25531;SDS011;13429;48.816;9.118;2023-02-28T14:50:22;12.68;;;9.38;;
25531;SDS011;13429;48.816;9.118;2023-02-28T14:52:55;14.93;;;9.68;;
25531;SDS011;13429;48.816;9.118;2023-02-28T14:55:31;13.80;;;9.27;;
25531;SDS011;13429;48.816;9.118;2023-02-28T14:57:58;14.75;;;8.95;;
25531;SDS011;13429;48.816;9.118;2023-02-28T15:00:25;12.25;;;9.00;;
25531;SDS011;13429;48.816;9.118;2023-02-28T15:02:52;16.05;;;9.07;;
25531;SDS011;13429;48.816;9.118;2023-02-28T15:05:34;13.23;;;8.93;;
25531;SDS011;13429;48.816;9.118;2023-02-28T15:08:14;12.50;;;9.07;;
25531;SDS011;13429;48.816;9.118;2023-02-28T15:13:16;12.07;;;8.68;;
25531;SDS011;13429;48.816;9.118;2023-02-28T15:15:48;14.50;;;9.48;;
25531;SDS011;13429;48.816;9.118;2023-02-28T15:18:21;13.27;;;8.07;;
25531;SDS011;13429;48.816;9.118;2023-02-28T15:20:48;14.05;;;8.95;;
25531;SDS011;13429;48.816;9.118;2023-02-28T15:23:14;13.02;;;9.45;;
25531;SDS011;13429;48.816;9.118;2023-02-28T15:25:41;12.43;;;9.20;;
25531;SDS011;13429;48.816;9.118;2023-02-28T15:28:18;15.10;;;9.93;;
25531;SDS011;13429;48.816;9.118;2023-02-28T15:31:01;17.25;;;10.20;;
25531;SDS011;13429;48.816;9.118;2023-02-28T15:33:31;14.02;;;9.77;;
25531;SDS011;13429;48.816;9.118;2023-02-28T15:36:04;13.60;;;9.23;;
25531;SDS011;13429;48.816;9.118;2023-02-28T15:38:32;15.15;;;9.60;;
25531;SDS011;13429;48.816;9.118;2023-02-28T15:40:59;14.63;;;9.40;;
25531;SDS011;13429;48.816;9.118;2023-02-28T15:43:26;13.32;;;9.50;;
25531;SDS011;13429;48.816;9.118;2023-02-28T15:45:55;17.08;;;10.40;;
25531;SDS011;13429;48.816;9.118;2023-02-28T15:48:35;13.50;;;9.25;;
25531;SDS011;13429;48.816;9.118;2023-02-28T15:53:32;14.57;;;9.82;;
25531;SDS011;13429;48.816;9.118;2023-02-28T15:56:03;16.50;;;9.73;;
25531;SDS011;13429;48.816;9.118;2023-02-28T16:03:38;13.48;;;8.88;;
25531;SDS011;13429;48.816;9.118;2023-02-28T16:06:08;12.85;;;8.40;;
25531;SDS011;13429;48.816;9.118;2023-02-28T16:08:34;16.45;;;10.73;;
25531;SDS011;13429;48.816;9.118;2023-02-28T16:11:01;14.15;;;9.02;;
25531;SDS011;13429;48.816;9.118;2023-02-28T16:13:27;14.52;;;9.73;;
25531;SDS011;13429;48.816;9.118;2023-02-28T16:15:53;16.23;;;9.52;;
25531;SDS011;13429;48.816;9.118;2023-02-28T16:18:19;15.88;;;9.95;;
25531;SDS011;13429;48.816;9.118;2023-02-28T16:20:45;16.23;;;9.18;;
25531;SDS011;13429;48.816;9.118;2023-02-28T16:23:11;16.60;;;9.80;;
25531;SDS011;13429;48.816;9.118;2023-02-28T16:25:42;15.52;;;9.65;;
25531;SDS011;13429;48.816;9.118;2023-02-28T16:28:19;14.15;;;9.80;;
25531;SDS011;13429;48.816;9.118;2023-02-28T16:30:46;12.80;;;8.85;;
25531;SDS011;13429;48.816;9.118;2023-02-28T16:33:12;19.27;;;11.65;;
25531;SDS011;13429;48.816;9.118;2023-02-28T16:35:38;14.20;;;9.70;;
25531;SDS011;13429;48.816;9.118;2023-02-28T16:38:04;12.35;;;9.07;;
25531;SDS011;13429;48.816;9.118;2023-02-28T16:40:33;18.00;;;10.02;;
25531;SDS011;13429;48.816;9.118;2023-02-28T16:42:59;16.65;;;10.13;;
25531;SDS011;13429;48.816;9.118;2023-02-28T16:45:27;14.70;;;9.18;;
25531;SDS011;13429;48.816;9.118;2023-02-28T16:47:54;15.55;;;9.18;;
25531;SDS011;13429;48.816;9.118;2023-02-28T16:50:21;15.25;;;9.40;;
25531;SDS011;13429;48.816;9.118;2023-02-28T16:52:47;15.88;;;9.27;;
25531;SDS011;13429;48.816;9.118;2023-02-28T16:55:14;15.20;;;9.70;;
25531;SDS011;13429;48.816;9.118;2023-02-28T16:57:42;15.88;;;8.88;;
25531;SDS011;13429;48.816;9.118;2023-02-28T17:00:10;15.95;;;10.13;;
25531;SDS011;13429;48.816;9.118;2023-02-28T17:02:37;13.38;;;9.05;;
25531;SDS011;13429;48.816;9.118;2023-02-28T17:05:04;14.32;;;9.30;;
25531;SDS011;13429;48.816;9.118;2023-02-28T17:07:30;16.35;;;10.43;;
25531;SDS011;13429;48.816;9.118;2023-02-28T17:09:56;19.60;;;11.43;;
25531;SDS011;13429;48.816;9.118;2023-02-28T17:12:22;16.98;;;9.93;;
25531;SDS011;13429;48.816;9.118;2023-02-28T17:14:48;16.08;;;10.20;;
25531;SDS011;13429;48.816;9.118;2023-02-28T17:17:18;20.52;;;12.88;;
25531;SDS011;13429;48.816;9.118;2023-02-28T17:19:46;18.83;;;11.60;;
25531;SDS011;13429;48.816;9.118;2023-02-28T17:22:12;17.77;;;10.80;;
25531;SDS011;13429;48.816;9.118;2023-02-28T17:24:38;23.38;;;11.98;;
25531;SDS011;13429;48.816;9.118;2023-02-28T17:27:04;20.63;;;10.93;;